Terminal Aerodrome Forecast
Issued by NWS Birmingham, AL

Home | Current Version | Previous Version | Text Only | Print | Product List | Glossary On
Versions: 1 2 3 4 5 6 7 8 9 10 11 12
000
FTUS44 KBMX 012300
TAFBHM
TAF
KBHM 012325Z 0200/0224 06003KT P6SM SCT040 BKN150
     FM020600 09003KT P6SM BKN100
      TEMPO 0210/0214 BKN012
     FM021400 05004KT P6SM VCSH OVC015
     FM021800 03004KT P6SM VCTS BKN025CB=

USA.gov is the U.S. government's official web portal to all federal, state and local government web resources and services.